createdAt,value
2018-09-19T00:01:51.923Z,62.00
2018-09-19T00:04:20.305Z,61.50
2018-09-19T00:06:48.409Z,61.50
2018-09-19T00:09:16.502Z,61.50
2018-09-19T00:11:44.620Z,61.30
2018-09-19T00:14:12.742Z,61.80
2018-09-19T00:16:40.883Z,62.50
2018-09-19T00:19:09.074Z,62.40
2018-09-19T00:21:37.270Z,61.90
2018-09-19T00:24:05.334Z,61.00
2018-09-19T00:26:33.397Z,61.10
2018-09-19T00:29:01.533Z,60.90
2018-09-19T00:31:29.572Z,61.80
2018-09-19T00:33:57.705Z,60.90
2018-09-19T00:36:25.953Z,61.20
2018-09-19T00:38:54.222Z,60.70
2018-09-19T00:41:22.369Z,60.50
2018-09-19T00:43:50.542Z,60.00
2018-09-19T00:46:18.695Z,59.70
2018-09-19T00:48:46.910Z,60.30
2018-09-19T00:51:15.126Z,61.60
2018-09-19T00:53:43.708Z,61.10
2018-09-19T00:56:11.889Z,61.50
2018-09-19T00:58:39.974Z,61.90
2018-09-19T01:01:08.096Z,62.00
2018-09-19T01:03:36.308Z,63.10
2018-09-19T01:06:04.456Z,62.90
2018-09-19T01:08:32.649Z,63.30
2018-09-19T01:11:00.786Z,62.80
2018-09-19T01:13:28.896Z,62.90
2018-09-19T01:15:56.896Z,62.60
2018-09-19T01:18:25.181Z,63.40
2018-09-19T01:20:53.246Z,64.00
2018-09-19T01:23:21.381Z,63.50
2018-09-19T01:25:49.552Z,63.20
2018-09-19T01:28:17.752Z,62.30
2018-09-19T01:30:45.809Z,62.60
2018-09-19T01:33:13.954Z,62.60
2018-09-19T01:35:42.018Z,62.60
2018-09-19T01:38:10.161Z,63.20
2018-09-19T01:40:38.225Z,63.20
2018-09-19T01:43:06.489Z,63.60
2018-09-19T01:45:34.839Z,64.40
2018-09-19T01:48:02.992Z,65.40
2018-09-19T01:50:31.191Z,65.20
2018-09-19T01:52:59.454Z,65.60
2018-09-19T01:55:27.647Z,66.10
2018-09-19T01:57:55.811Z,65.90
2018-09-19T02:00:23.901Z,67.00
2018-09-19T02:02:52.452Z,66.80
2018-09-19T02:05:20.552Z,66.70
2018-09-19T02:07:48.809Z,66.60
2018-09-19T02:10:17.019Z,67.00
2018-09-19T02:12:45.133Z,67.00
2018-09-19T02:15:13.233Z,67.70
2018-09-19T02:17:41.424Z,67.90
2018-09-19T02:20:09.519Z,68.00
2018-09-19T02:22:37.676Z,68.50
2018-09-19T02:25:05.831Z,68.20
2018-09-19T02:27:43.398Z,68.20
2018-09-19T02:30:11.496Z,70.20
2018-09-19T02:32:39.566Z,69.50
2018-09-19T02:35:07.726Z,69.70
2018-09-19T02:37:36.120Z,69.10
2018-09-19T02:40:04.841Z,68.70
2018-09-19T02:42:33.241Z,68.80
2018-09-19T02:45:01.391Z,69.20
2018-09-19T02:47:29.483Z,68.40
2018-09-19T02:49:57.720Z,68.20
2018-09-19T02:52:25.930Z,68.10
2018-09-19T02:54:54.114Z,68.60
2018-09-19T02:57:22.173Z,69.30
2018-09-19T02:59:50.399Z,68.80
2018-09-19T03:02:18.664Z,67.80
2018-09-19T03:04:47.516Z,66.90
2018-09-19T03:07:15.744Z,67.20
2018-09-19T03:09:43.921Z,68.20
2018-09-19T03:12:12.133Z,68.80
2018-09-19T03:14:40.184Z,68.40
2018-09-19T03:17:08.475Z,68.20
2018-09-19T03:19:36.621Z,68.30
2018-09-19T03:22:04.845Z,68.70
2018-09-19T03:24:33.151Z,68.90
2018-09-19T03:27:01.417Z,69.20
2018-09-19T03:29:29.605Z,69.80
2018-09-19T03:31:57.888Z,69.80
2018-09-19T03:34:26.007Z,69.70
2018-09-19T03:36:54.127Z,69.60
2018-09-19T03:39:22.166Z,70.00
2018-09-19T03:41:50.258Z,70.00
2018-09-19T03:44:18.426Z,70.90
2018-09-19T03:46:46.666Z,70.70
2018-09-19T03:49:14.744Z,71.20
2018-09-19T03:51:42.822Z,71.40
2018-09-19T03:54:11.725Z,71.20
2018-09-19T03:56:39.845Z,70.00
2018-09-19T03:59:08.390Z,69.60
2018-09-19T04:01:36.511Z,70.40
2018-09-19T04:04:04.773Z,70.00
2018-09-19T04:06:33.035Z,70.80
2018-09-19T04:09:01.158Z,70.70
2018-09-19T04:11:29.402Z,71.60
2018-09-19T04:13:57.530Z,71.50
2018-09-19T04:16:25.755Z,71.70
2018-09-19T04:18:53.847Z,71.60
2018-09-19T04:21:22.007Z,72.40
2018-09-19T04:23:50.153Z,72.60
2018-09-19T04:26:18.338Z,71.80
2018-09-19T04:28:46.498Z,72.10
2018-09-19T04:31:14.551Z,72.60
2018-09-19T04:33:42.941Z,72.90
2018-09-19T04:36:11.090Z,71.70
2018-09-19T04:38:39.910Z,71.90
2018-09-19T04:41:08.718Z,71.60
2018-09-19T04:43:37.492Z,70.80
2018-09-19T04:46:05.755Z,69.70
2018-09-19T04:48:33.882Z,69.60
2018-09-19T04:51:02.013Z,70.80
2018-09-19T04:53:30.199Z,71.50
2018-09-19T04:55:58.798Z,69.80
2018-09-19T04:58:26.972Z,70.30
2018-09-19T05:00:55.133Z,70.90
2018-09-19T05:03:23.888Z,71.50
2018-09-19T05:05:52.008Z,71.70
2018-09-19T05:08:20.115Z,70.90
2018-09-19T05:10:48.297Z,71.10
2018-09-19T05:13:16.465Z,71.40
2018-09-19T05:15:44.620Z,70.30
2018-09-19T05:18:12.783Z,69.60
2018-09-19T05:20:40.899Z,69.30
2018-09-19T05:23:09.111Z,69.30
2018-09-19T05:25:37.318Z,69.80
2018-09-19T05:28:05.415Z,69.30
2018-09-19T05:30:33.561Z,68.50
2018-09-19T05:33:01.714Z,68.50
2018-09-19T05:35:29.806Z,68.90
2018-09-19T05:37:57.935Z,68.20
2018-09-19T05:40:26.017Z,68.20
2018-09-19T05:42:54.125Z,68.10
2018-09-19T05:45:22.233Z,68.40
2018-09-19T05:47:50.311Z,68.20
2018-09-19T05:50:18.963Z,68.50
2018-09-19T05:52:47.077Z,68.90
2018-09-19T05:55:15.524Z,68.60
2018-09-19T05:57:43.979Z,68.70
2018-09-19T06:00:12.211Z,68.80
2018-09-19T06:02:40.324Z,69.20
2018-09-19T06:05:08.666Z,68.80
2018-09-19T06:07:36.687Z,69.00
2018-09-19T06:10:05.148Z,69.10
2018-09-19T06:12:33.304Z,69.00
2018-09-19T06:15:01.465Z,69.20
2018-09-19T06:17:29.744Z,68.90
2018-09-19T06:19:57.931Z,68.80
2018-09-19T06:22:26.025Z,68.10
2018-09-19T06:24:54.180Z,67.30
2018-09-19T06:27:22.453Z,66.40
2018-09-19T06:29:50.696Z,65.40
2018-09-19T06:32:18.862Z,63.60
2018-09-19T06:34:46.971Z,63.30
2018-09-19T06:37:15.141Z,62.80
2018-09-19T06:39:43.278Z,62.40
2018-09-19T06:42:11.466Z,62.10
2018-09-19T06:44:39.575Z,58.10
2018-09-19T06:47:07.832Z,56.80
2018-09-19T06:49:36.015Z,56.60
2018-09-19T06:52:04.297Z,56.60
2018-09-19T06:54:32.446Z,53.40
2018-09-19T06:57:00.647Z,51.10
2018-09-19T06:59:28.742Z,47.00
2018-09-19T07:01:57.295Z,44.70
2018-09-19T07:04:25.480Z,41.40
2018-09-19T07:06:53.612Z,41.00
2018-09-19T07:09:21.682Z,40.30
2018-09-19T07:11:49.858Z,38.70
2018-09-19T07:14:18.140Z,37.00
2018-09-19T07:16:46.241Z,36.40
2018-09-19T07:19:14.446Z,34.10
2018-09-19T07:21:42.589Z,33.40
2018-09-19T07:24:10.683Z,34.90
2018-09-19T07:26:38.823Z,36.70
2018-09-19T07:29:07.015Z,39.50
2018-09-19T07:31:35.267Z,40.70
2018-09-19T07:34:03.430Z,40.50
2018-09-19T07:36:31.601Z,41.50
2018-09-19T07:38:59.685Z,41.60
2018-09-19T07:41:27.815Z,39.20
2018-09-19T07:43:56.198Z,34.40
2018-09-19T07:46:24.352Z,30.90
2018-09-19T07:48:52.432Z,30.10
2018-09-19T07:51:21.242Z,27.90
2018-09-19T07:53:49.404Z,26.40
2018-09-19T07:56:17.649Z,25.90
2018-09-19T07:58:45.854Z,25.50
2018-09-19T08:01:14.137Z,24.80
2018-09-19T08:03:42.342Z,24.00
2018-09-19T08:06:10.499Z,23.60
2018-09-19T08:08:48.305Z,23.60
2018-09-19T08:11:16.467Z,22.40
2018-09-19T08:13:44.705Z,22.90
2018-09-19T08:16:12.853Z,21.50
2018-09-19T08:18:41.459Z,21.00
2018-09-19T08:21:09.662Z,19.90
2018-09-19T08:23:37.724Z,20.10
2018-09-19T08:26:05.899Z,19.50
2018-09-19T08:28:34.149Z,19.40
2018-09-19T08:31:02.313Z,19.00
2018-09-19T08:33:30.429Z,18.70
2018-09-19T08:35:58.593Z,18.70
2018-09-19T08:38:26.672Z,17.80
2018-09-19T08:40:54.764Z,18.50
2018-09-19T08:43:22.866Z,18.30
2018-09-19T08:45:51.136Z,16.60
2018-09-19T08:48:19.218Z,16.30
2018-09-19T08:50:47.452Z,16.40
2018-09-19T08:53:15.645Z,16.40
2018-09-19T08:55:43.854Z,16.20
2018-09-19T08:58:21.465Z,16.60
2018-09-19T09:00:49.588Z,16.90
2018-09-19T09:03:17.745Z,16.70
2018-09-19T09:05:46.020Z,16.20
2018-09-19T09:08:14.138Z,16.30
2018-09-19T09:10:42.252Z,16.40
2018-09-19T09:13:10.484Z,16.40
2018-09-19T09:15:38.634Z,16.50
2018-09-19T09:18:07.656Z,16.40
2018-09-19T09:20:35.922Z,16.00
2018-09-19T09:23:04.081Z,16.30
2018-09-19T09:25:32.327Z,16.10
2018-09-19T09:28:00.471Z,16.30
2018-09-19T09:30:28.652Z,15.90
2018-09-19T09:32:56.846Z,16.30
2018-09-19T09:35:24.877Z,18.30
2018-09-19T09:37:52.994Z,20.20
2018-09-19T09:40:21.117Z,22.00
2018-09-19T09:42:49.305Z,23.30
2018-09-19T09:45:17.574Z,23.10
2018-09-19T09:47:45.807Z,24.20
2018-09-19T09:50:14.108Z,25.60
2018-09-19T09:52:42.326Z,26.70
2018-09-19T09:55:10.531Z,27.20
2018-09-19T09:57:38.756Z,28.10
2018-09-19T10:00:07.040Z,28.20
2018-09-19T10:02:35.253Z,28.40
2018-09-19T10:05:03.604Z,29.00
2018-09-19T10:07:31.834Z,28.90
2018-09-19T10:10:00.009Z,29.50
2018-09-19T10:12:28.177Z,30.00
2018-09-19T10:14:56.365Z,30.50
2018-09-19T10:17:24.597Z,30.60
2018-09-19T10:19:52.812Z,30.80
2018-09-19T10:22:20.973Z,29.60
2018-09-19T10:24:49.094Z,27.10
2018-09-19T10:27:17.327Z,24.50
2018-09-19T10:29:45.639Z,21.90
2018-09-19T10:32:13.733Z,20.30
2018-09-19T10:34:41.863Z,18.90
2018-09-19T10:37:09.940Z,17.90
2018-09-19T10:39:38.120Z,16.40
2018-09-19T10:42:06.284Z,15.50
2018-09-19T10:44:34.504Z,15.20
2018-09-19T10:47:02.617Z,14.90
2018-09-19T10:49:30.811Z,14.60
2018-09-19T10:51:59.037Z,13.90
2018-09-19T10:54:27.129Z,12.40
2018-09-19T10:56:55.248Z,12.50
2018-09-19T10:59:23.404Z,11.80
2018-09-19T11:01:51.539Z,11.80
2018-09-19T11:04:19.646Z,11.90
2018-09-19T11:06:48.519Z,10.90
2018-09-19T11:09:16.640Z,10.80
2018-09-19T11:11:44.753Z,11.00
2018-09-19T11:14:12.896Z,9.80
2018-09-19T11:16:41.001Z,8.60
2018-09-19T11:19:09.082Z,8.90
2018-09-19T11:21:37.253Z,8.60
2018-09-19T11:24:05.726Z,8.70
2018-09-19T11:26:33.901Z,8.70
2018-09-19T11:29:02.072Z,8.30
2018-09-19T11:31:30.243Z,8.20
2018-09-19T11:33:58.400Z,8.00
2018-09-19T11:36:26.632Z,8.10
2018-09-19T11:38:54.889Z,8.70
2018-09-19T11:41:23.189Z,7.80
2018-09-19T11:43:51.424Z,7.40
2018-09-19T11:46:19.617Z,7.70
2018-09-19T11:48:48.248Z,8.50
2018-09-19T11:51:16.451Z,8.30
2018-09-19T11:53:44.536Z,8.70
2018-09-19T11:56:12.570Z,7.10
2018-09-19T11:58:40.807Z,8.00
2018-09-19T12:01:09.149Z,8.00
2018-09-19T12:03:37.288Z,7.90
2018-09-19T12:06:05.527Z,8.70
2018-09-19T12:08:33.685Z,8.70
2018-09-19T12:11:01.809Z,8.20
2018-09-19T12:13:29.880Z,8.40
2018-09-19T12:15:58.028Z,8.50
2018-09-19T12:18:26.201Z,7.40
2018-09-19T12:20:54.387Z,8.10
2018-09-19T12:23:22.614Z,6.90
2018-09-19T12:25:50.730Z,6.80
2018-09-19T12:28:18.889Z,7.60
2018-09-19T12:30:47.014Z,6.80
2018-09-19T12:33:15.121Z,7.30
2018-09-19T12:35:43.178Z,7.10
2018-09-19T12:38:11.482Z,7.10
2018-09-19T12:40:39.569Z,6.40
2018-09-19T12:43:07.700Z,7.10
2018-09-19T12:45:35.854Z,6.90
2018-09-19T12:48:04.030Z,7.50
2018-09-19T12:50:32.213Z,8.20
2018-09-19T12:53:00.450Z,8.10
2018-09-19T12:55:28.847Z,8.00
2018-09-19T12:57:57.032Z,8.10
2018-09-19T13:00:25.261Z,8.20
2018-09-19T13:02:53.493Z,8.50
2018-09-19T13:05:21.644Z,7.80
2018-09-19T13:07:49.745Z,8.40
2018-09-19T13:10:17.837Z,8.30
2018-09-19T13:12:45.902Z,8.10
2018-09-19T13:15:14.070Z,8.10
2018-09-19T13:17:42.271Z,7.60
2018-09-19T13:20:10.414Z,8.00
2018-09-19T13:22:38.632Z,8.10
2018-09-19T13:25:06.915Z,7.80
2018-09-19T13:27:35.160Z,7.80
2018-09-19T13:30:03.514Z,7.70
2018-09-19T13:32:31.632Z,7.90
2018-09-19T13:34:59.846Z,7.80
2018-09-19T13:37:27.980Z,7.60
2018-09-19T13:39:56.125Z,7.60
2018-09-19T13:42:24.330Z,7.80
2018-09-19T13:44:52.896Z,7.50
2018-09-19T13:47:21.060Z,8.50
2018-09-19T13:51:05.428Z,8.90
2018-09-19T13:53:33.631Z,9.30
2018-09-19T13:56:01.804Z,8.90
2018-09-19T13:58:30.048Z,9.70
2018-09-19T14:00:58.212Z,9.70
2018-09-19T14:03:26.377Z,9.70
2018-09-19T14:05:54.551Z,10.30
2018-09-19T14:08:23.036Z,9.80
2018-09-19T14:10:51.241Z,10.70
2018-09-19T14:13:19.424Z,10.10
2018-09-19T14:15:47.684Z,9.70
2018-09-19T14:18:15.934Z,10.20
2018-09-19T14:20:44.281Z,11.60
2018-09-19T14:23:12.416Z,11.40
2018-09-19T14:25:40.525Z,11.40
2018-09-19T14:28:08.731Z,12.10
2018-09-19T14:30:37.257Z,13.20
2018-09-19T14:33:05.448Z,13.80
2018-09-19T14:35:33.644Z,14.20
2018-09-19T14:38:02.473Z,14.10
2018-09-19T14:40:30.837Z,13.90
2018-09-19T14:42:59.041Z,13.50
2018-09-19T14:45:27.359Z,13.40
2018-09-19T14:47:55.634Z,14.00
2018-09-19T14:50:23.817Z,14.20
2018-09-19T14:52:52.009Z,13.80
2018-09-19T14:55:20.354Z,13.60
2018-09-19T14:57:48.511Z,13.50
2018-09-19T15:00:16.799Z,13.80
2018-09-19T15:02:44.955Z,13.80
2018-09-19T15:05:13.247Z,13.40
2018-09-19T15:07:41.438Z,13.10
2018-09-19T15:10:09.697Z,13.80
2018-09-19T15:12:37.833Z,14.50
2018-09-19T15:15:06.035Z,14.60
2018-09-19T15:17:34.275Z,15.40
2018-09-19T15:20:02.961Z,15.30
2018-09-19T15:22:31.160Z,15.30
2018-09-19T15:24:59.342Z,14.80
2018-09-19T15:27:27.572Z,14.50
2018-09-19T15:29:55.758Z,14.30
2018-09-19T15:32:24.110Z,14.80
2018-09-19T15:34:52.274Z,15.00
2018-09-19T15:37:20.388Z,14.80
2018-09-19T15:39:48.568Z,15.90
2018-09-19T15:42:17.560Z,16.10
2018-09-19T15:44:45.739Z,15.90
2018-09-19T15:47:13.983Z,16.30
2018-09-19T15:49:42.161Z,16.60
2018-09-19T15:52:11.321Z,16.30
2018-09-19T15:54:39.335Z,16.50
2018-09-19T15:57:07.539Z,16.40
2018-09-19T15:59:35.609Z,16.40
2018-09-19T16:02:03.901Z,17.00
2018-09-19T16:04:32.094Z,17.20
2018-09-19T16:07:00.297Z,17.80
2018-09-19T16:09:28.447Z,17.80
2018-09-19T16:11:56.616Z,18.20
2018-09-19T16:14:24.731Z,18.60
2018-09-19T16:16:52.926Z,18.60
2018-09-19T16:19:21.338Z,19.00
2018-09-19T16:21:49.427Z,19.10
2018-09-19T16:24:17.590Z,19.90
2018-09-19T16:26:45.809Z,20.00
2018-09-19T16:29:13.925Z,20.90
2018-09-19T16:31:42.147Z,21.20
2018-09-19T16:34:10.982Z,22.20
2018-09-19T16:36:39.374Z,22.40
2018-09-19T16:39:10.717Z,22.30
2018-09-19T16:41:38.929Z,22.30
2018-09-19T16:44:07.393Z,23.50
2018-09-19T16:46:36.301Z,23.70
2018-09-19T16:49:05.066Z,24.50
2018-09-19T16:51:33.294Z,25.00
2018-09-19T16:54:01.486Z,25.60
2018-09-19T16:56:29.918Z,26.20
2018-09-19T16:58:58.413Z,26.40
2018-09-19T17:01:28.130Z,26.40
2018-09-19T17:03:56.720Z,27.40
2018-09-19T17:06:24.870Z,27.30
2018-09-19T17:08:53.573Z,28.40
2018-09-19T17:11:22.035Z,28.80
2018-09-19T17:13:50.257Z,30.00
2018-09-19T17:16:18.507Z,29.90
2018-09-19T17:18:47.393Z,29.90
2018-09-19T17:21:16.277Z,29.90
2018-09-19T17:23:44.458Z,30.00
2018-09-19T17:26:12.825Z,30.70
2018-09-19T17:28:42.634Z,30.20
2018-09-19T17:31:10.704Z,31.80
2018-09-19T17:33:38.841Z,31.70
2018-09-19T17:36:06.982Z,32.70
2018-09-19T17:38:49.238Z,32.40
2018-09-19T17:41:17.302Z,33.60
2018-09-19T17:43:45.619Z,33.40
2018-09-19T17:46:14.505Z,34.60
2018-09-19T17:48:42.661Z,34.70
2018-09-19T17:51:10.881Z,35.30
2018-09-19T17:53:39.157Z,35.30
2018-09-19T17:56:07.474Z,35.80
2018-09-19T17:58:35.647Z,36.20
2018-09-19T18:01:03.763Z,34.80
2018-09-19T18:03:31.875Z,35.50
2018-09-19T18:06:00.083Z,36.70
2018-09-19T18:08:42.664Z,36.00
2018-09-19T18:11:11.245Z,37.20
2018-09-19T18:13:39.468Z,36.60
2018-09-19T18:16:07.543Z,37.10
2018-09-19T18:18:36.750Z,37.70
2018-09-19T18:21:05.510Z,38.50
2018-09-19T18:23:33.704Z,39.10
2018-09-19T18:26:01.892Z,39.10
2018-09-19T18:28:30.886Z,39.00
2018-09-19T18:30:59.027Z,38.80
2018-09-19T18:33:27.249Z,38.80
2018-09-19T18:35:55.579Z,38.80
2018-09-19T18:38:23.757Z,38.60
2018-09-19T18:40:52.060Z,38.70
2018-09-19T18:43:20.221Z,38.80
2018-09-19T18:45:48.466Z,38.60
2018-09-19T18:48:16.624Z,40.40
2018-09-19T18:50:44.776Z,40.10
2018-09-19T18:53:12.948Z,40.90
2018-09-19T18:55:41.226Z,40.10
2018-09-19T18:58:09.652Z,40.40
2018-09-19T19:00:37.821Z,41.30
2018-09-19T19:03:06.484Z,42.50
2018-09-19T19:05:34.668Z,42.80
2018-09-19T19:08:02.969Z,43.10
2018-09-19T19:10:31.076Z,43.30
2018-09-19T19:12:59.256Z,43.60
2018-09-19T19:15:27.501Z,43.20
2018-09-19T19:17:55.730Z,44.60
2018-09-19T19:20:23.993Z,44.90
2018-09-19T19:22:52.244Z,45.20
2018-09-19T19:25:20.494Z,45.10
2018-09-19T19:27:48.692Z,45.60
2018-09-19T19:30:17.088Z,45.50
2018-09-19T19:32:45.693Z,45.20
2018-09-19T19:35:13.823Z,46.00
2018-09-19T19:37:42.682Z,46.80
2018-09-19T19:40:10.808Z,46.30
2018-09-19T19:42:39.044Z,47.90
2018-09-19T19:45:07.314Z,47.40
2018-09-19T19:47:35.712Z,47.70
2018-09-19T19:50:04.281Z,48.50
2018-09-19T19:52:32.490Z,48.90
2018-09-19T19:55:01.270Z,49.10
2018-09-19T19:57:29.509Z,49.10
2018-09-19T19:59:57.692Z,49.00
2018-09-19T20:02:25.994Z,49.80
2018-09-19T20:04:54.275Z,49.30
2018-09-19T20:07:23.058Z,49.20
2018-09-19T20:09:51.389Z,49.70
2018-09-19T20:12:19.830Z,49.70
2018-09-19T20:14:48.047Z,50.00
2018-09-19T20:17:16.244Z,49.60
2018-09-19T20:19:45.214Z,49.90
2018-09-19T20:22:13.383Z,50.90
2018-09-19T20:24:41.587Z,50.60
2018-09-19T20:27:09.898Z,51.10
2018-09-19T20:29:38.182Z,51.10
2018-09-19T20:32:06.275Z,51.10
2018-09-19T20:34:34.413Z,51.70
2018-09-19T20:37:02.532Z,51.80
2018-09-19T20:39:30.832Z,52.20
2018-09-19T20:41:59.675Z,52.10
2018-09-19T20:44:28.619Z,53.20
2018-09-19T20:46:56.774Z,53.00
2018-09-19T20:49:24.961Z,53.20
2018-09-19T20:51:53.846Z,53.20
2018-09-19T20:54:21.973Z,53.30
2018-09-19T20:56:50.269Z,53.90
2018-09-19T20:59:18.522Z,53.10
2018-09-19T21:01:46.985Z,53.30
2018-09-19T21:04:15.192Z,53.40
2018-09-19T21:06:43.299Z,53.90
2018-09-19T21:09:11.454Z,54.20
2018-09-19T21:11:39.698Z,53.70
2018-09-19T21:14:07.889Z,54.50
2018-09-19T21:16:36.050Z,54.80
2018-09-19T21:19:04.314Z,54.90
2018-09-19T21:21:32.753Z,55.20
2018-09-19T21:24:01.061Z,56.60
2018-09-19T21:26:29.237Z,55.10
2018-09-19T21:28:57.525Z,55.90
2018-09-19T21:31:25.818Z,55.90
2018-09-19T21:33:54.095Z,55.40
2018-09-19T21:36:22.724Z,56.70
2018-09-19T21:38:50.850Z,56.70
2018-09-19T21:41:19.693Z,56.60
2018-09-19T21:43:47.853Z,56.60
2018-09-19T21:46:16.814Z,56.50
2018-09-19T21:48:45.005Z,56.50
2018-09-19T21:51:13.228Z,56.50
2018-09-19T21:53:41.396Z,56.30
2018-09-19T21:56:09.452Z,56.40
2018-09-19T21:58:37.627Z,56.30
2018-09-19T22:01:08.350Z,56.00
2018-09-19T22:03:37.837Z,56.40
2018-09-19T22:06:06.834Z,57.80
2018-09-19T22:08:35.428Z,57.00
2018-09-19T22:11:04.620Z,57.70
2018-09-19T22:13:32.718Z,57.20
2018-09-19T22:16:00.887Z,57.00
2018-09-19T22:18:28.993Z,57.10
2018-09-19T22:20:57.140Z,57.00
2018-09-19T22:23:25.276Z,57.00
2018-09-19T22:25:53.371Z,57.30
2018-09-19T22:28:21.446Z,57.60
2018-09-19T22:30:49.592Z,58.30
2018-09-19T22:33:17.696Z,58.80
2018-09-19T22:35:45.867Z,58.80
2018-09-19T22:38:14.034Z,59.10
2018-09-19T22:40:42.131Z,58.70
2018-09-19T22:43:10.269Z,58.90
2018-09-19T22:45:38.413Z,59.10
2018-09-19T22:48:06.650Z,59.00
2018-09-19T22:50:34.869Z,58.70
2018-09-19T22:53:03.032Z,58.80
2018-09-19T22:55:31.220Z,58.90
2018-09-19T22:57:59.917Z,59.00
2018-09-19T23:00:28.138Z,59.00
2018-09-19T23:02:56.293Z,59.80
2018-09-19T23:05:24.589Z,59.50
2018-09-19T23:07:52.742Z,59.00
2018-09-19T23:10:20.874Z,58.80
2018-09-19T23:12:49.173Z,59.10
2018-09-19T23:15:17.358Z,59.00
2018-09-19T23:17:45.451Z,58.80
2018-09-19T23:20:13.506Z,59.00
2018-09-19T23:22:41.689Z,59.50
2018-09-19T23:25:09.810Z,59.50
2018-09-19T23:27:37.838Z,59.70
2018-09-19T23:30:05.989Z,60.30
2018-09-19T23:32:34.100Z,60.10
2018-09-19T23:35:02.251Z,60.20
2018-09-19T23:37:31.091Z,61.00
2018-09-19T23:39:59.263Z,60.90
2018-09-19T23:42:29.187Z,60.60
2018-09-19T23:44:57.375Z,61.10
2018-09-19T23:47:25.407Z,61.00
2018-09-19T23:49:53.688Z,62.20
2018-09-19T23:52:21.919Z,62.40
2018-09-19T23:54:50.148Z,62.80
2018-09-19T23:57:18.565Z,62.60
2018-09-19T23:59:46.882Z,62.80
